Time;durP1;ratioP1;P1;durP2;ratioP2;P2;SDS_P1;SDS_P2;PMS_P1;PMS_P2;Temp;Humidity;BMP_temperature;BMP_pressure;BME280_temperature;BME280_humidity;BME280_pressure;Samples;Min_cycle;Max_cycle;Signal;HPM_P1;HPM_P2
2023/10/27 00:02:22;;;;;;;4.07;1.97;;;10.80;99.90;;;;;;4979941;28;20215;-31
2023/10/27 00:04:48;;;;;;;3.23;2.07;;;10.80;99.90;;;;;;5005054;28;20182;-32
2023/10/27 00:07:14;;;;;;;5.50;2.70;;;10.80;99.90;;;;;;4994223;28;20209;-31
2023/10/27 00:09:39;;;;;;;3.90;2.10;;;10.80;99.90;;;;;;4977882;28;20231;-31
2023/10/27 00:12:06;;;;;;;4.77;2.43;;;10.80;99.90;;;;;;5012225;28;20182;-31
2023/10/27 00:14:33;;;;;;;4.03;2.30;;;10.80;99.90;;;;;;5012159;28;20202;-31
2023/10/27 00:17:00;;;;;;;4.77;2.13;;;10.80;99.90;;;;;;4994476;28;20194;-31
2023/10/27 00:19:25;;;;;;;6.33;2.67;;;10.70;99.90;;;;;;5010382;28;20186;-30
2023/10/27 00:21:51;;;;;;;5.13;2.20;;;10.70;99.90;;;;;;4977936;28;20196;-30
2023/10/27 00:24:17;;;;;;;5.20;2.20;;;10.70;99.90;;;;;;4984037;28;20300;-30
2023/10/27 00:26:43;;;;;;;7.27;2.40;;;10.60;99.90;;;;;;4958817;28;20209;-30
2023/10/27 00:29:09;;;;;;;4.47;1.90;;;10.60;99.90;;;;;;4963206;28;20193;-30
2023/10/27 00:31:35;;;;;;;6.17;2.23;;;10.60;99.90;;;;;;4977768;28;20661;-30
2023/10/27 00:34:01;;;;;;;4.03;2.23;;;10.60;99.90;;;;;;4977995;28;20351;-30
2023/10/27 00:36:27;;;;;;;4.83;2.17;;;10.60;99.90;;;;;;4993703;28;20180;-31
2023/10/27 00:38:52;;;;;;;6.00;2.17;;;10.60;99.90;;;;;;4993343;28;20188;-30
2023/10/27 00:41:18;;;;;;;4.33;1.73;;;10.60;99.90;;;;;;4977620;28;20181;-31
2023/10/27 00:43:44;;;;;;;5.20;2.10;;;10.60;99.90;;;;;;4994054;28;20204;-30
2023/10/27 00:46:10;;;;;;;4.70;2.10;;;10.60;99.90;;;;;;4975571;28;20277;-30
2023/10/27 00:48:37;;;;;;;4.93;1.87;;;10.60;99.90;;;;;;4990159;28;20171;-30
2023/10/27 00:51:07;;;;;;;4.27;1.90;;;10.60;99.90;;;;;;4958192;28;20483;-30
2023/10/27 00:53:33;;;;;;;3.50;2.00;;;10.60;99.90;;;;;;4965962;28;20198;-30
2023/10/27 00:55:59;;;;;;;5.20;2.00;;;10.60;99.90;;;;;;5026830;28;20181;-31
2023/10/27 00:58:25;;;;;;;8.13;1.83;;;10.60;99.90;;;;;;5010258;28;20273;-30
2023/10/27 01:00:54;;;;;;;4.20;1.60;;;10.60;99.90;;;;;;4994773;28;20253;-30
2023/10/27 01:03:20;;;;;;;4.37;1.90;;;10.60;99.90;;;;;;4993452;28;20234;-30
2023/10/27 01:05:46;;;;;;;4.80;1.50;;;10.60;99.90;;;;;;4988091;28;20217;-31
2023/10/27 01:08:12;;;;;;;3.10;1.40;;;10.60;99.90;;;;;;4977550;28;20223;-29
2023/10/27 01:10:38;;;;;;;3.00;1.33;;;10.60;99.90;;;;;;4993551;28;20180;-30
2023/10/27 01:13:03;;;;;;;2.27;1.30;;;10.60;99.90;;;;;;4977252;28;20253;-30
2023/10/27 01:15:30;;;;;;;2.83;1.47;;;10.60;99.90;;;;;;5011468;28;20181;-30
2023/10/27 01:17:56;;;;;;;2.33;1.27;;;10.60;99.90;;;;;;4993958;28;20205;-30
2023/10/27 01:20:22;;;;;;;3.23;1.40;;;10.60;99.90;;;;;;4994598;28;20273;-30
2023/10/27 01:22:48;;;;;;;3.10;1.37;;;10.50;99.90;;;;;;5010567;28;20295;-30
2023/10/27 01:25:17;;;;;;;2.90;1.10;;;10.50;99.90;;;;;;4981600;28;20293;-30
2023/10/27 01:27:44;;;;;;;4.20;1.40;;;10.50;99.90;;;;;;4980962;28;20205;-30
2023/10/27 01:30:10;;;;;;;2.53;1.40;;;10.50;99.90;;;;;;4990599;28;20183;-30
2023/10/27 01:32:37;;;;;;;3.13;1.53;;;10.50;99.90;;;;;;4977167;28;20205;-30
2023/10/27 01:35:04;;;;;;;3.47;1.53;;;10.50;99.90;;;;;;4978063;28;20193;-30
2023/10/27 01:37:29;;;;;;;3.13;1.10;;;10.50;99.90;;;;;;4976778;28;20220;-30
2023/10/27 01:39:58;;;;;;;3.17;1.00;;;10.50;99.90;;;;;;4977842;28;20210;-30
2023/10/27 01:42:24;;;;;;;1.70;1.13;;;10.50;99.90;;;;;;4977768;28;20292;-30
2023/10/27 01:44:51;;;;;;;2.93;1.27;;;10.50;99.90;;;;;;4973986;28;20701;-30
2023/10/27 01:47:16;;;;;;;4.10;0.93;;;10.50;99.90;;;;;;5013202;28;20717;-30
2023/10/27 01:49:42;;;;;;;5.23;1.30;;;10.40;99.90;;;;;;4972439;28;20177;-31
2023/10/27 01:52:08;;;;;;;4.27;1.30;;;10.30;99.90;;;;;;4961949;28;20186;-30
2023/10/27 01:54:34;;;;;;;4.47;1.30;;;10.30;99.90;;;;;;4961452;28;20177;-30
2023/10/27 01:57:00;;;;;;;2.10;1.27;;;10.30;99.90;;;;;;4961243;28;20182;-30
2023/10/27 01:59:27;;;;;;;3.47;1.20;;;10.30;99.90;;;;;;4967330;28;20243;-30
2023/10/27 02:01:53;;;;;;;1.63;1.17;;;10.30;99.90;;;;;;4986485;28;20194;-30
2023/10/27 02:04:20;;;;;;;3.30;1.20;;;10.20;99.90;;;;;;4979915;28;20248;-30
2023/10/27 02:06:47;;;;;;;4.83;1.30;;;10.20;99.90;;;;;;5012249;28;20211;-29
2023/10/27 02:09:12;;;;;;;4.70;1.50;;;10.20;99.90;;;;;;5012289;28;20176;-31
2023/10/27 02:11:38;;;;;;;3.73;1.30;;;10.20;99.90;;;;;;4980293;28;20209;-32
2023/10/27 02:14:04;;;;;;;1.20;0.90;;;10.20;99.90;;;;;;4980163;28;20212;-32
2023/10/27 02:16:30;;;;;;;1.43;1.27;;;10.20;99.90;;;;;;4980404;28;20190;-31
2023/10/27 02:18:56;;;;;;;2.67;1.20;;;10.20;99.90;;;;;;4978475;28;20180;-32
2023/10/27 02:21:21;;;;;;;2.60;1.20;;;10.20;99.90;;;;;;4976797;28;20269;-32
2023/10/27 02:23:47;;;;;;;2.27;1.30;;;10.20;99.90;;;;;;4960113;28;20213;-32
2023/10/27 02:26:13;;;;;;;2.70;1.13;;;10.20;99.90;;;;;;4977038;28;20179;-32
2023/10/27 02:28:39;;;;;;;3.53;1.50;;;10.20;99.90;;;;;;4961192;28;20261;-31
2023/10/27 02:31:05;;;;;;;1.27;1.00;;;10.20;99.90;;;;;;4995352;28;20238;-31
2023/10/27 02:33:31;;;;;;;2.80;0.93;;;10.20;99.90;;;;;;5011182;28;20220;-31
2023/10/27 02:35:57;;;;;;;2.40;1.10;;;10.20;99.90;;;;;;4979387;28;20181;-31
2023/10/27 02:38:22;;;;;;;2.17;1.10;;;10.20;99.90;;;;;;4979877;28;20195;-31
2023/10/27 02:40:48;;;;;;;3.07;1.30;;;10.30;99.90;;;;;;4978378;28;20182;-32
2023/10/27 02:43:14;;;;;;;1.77;1.30;;;10.20;99.90;;;;;;4979715;28;20212;-32
2023/10/27 02:45:40;;;;;;;4.70;1.10;;;10.20;99.90;;;;;;4995522;28;20182;-32
2023/10/27 02:48:06;;;;;;;2.57;1.00;;;10.20;99.90;;;;;;4995815;28;20252;-31
2023/10/27 02:50:32;;;;;;;2.27;1.10;;;10.20;99.90;;;;;;4995721;28;20193;-31
2023/10/27 02:52:57;;;;;;;2.33;1.17;;;10.20;99.90;;;;;;4979654;28;20198;-31
2023/10/27 02:55:23;;;;;;;1.50;1.00;;;10.20;99.90;;;;;;4979329;28;20191;-32
2023/10/27 02:57:49;;;;;;;2.00;1.07;;;10.20;99.90;;;;;;5012222;28;20212;-31
2023/10/27 03:00:15;;;;;;;2.43;0.90;;;10.20;99.90;;;;;;4995501;28;20181;-31
2023/10/27 03:02:41;;;;;;;2.13;1.27;;;10.20;99.90;;;;;;4987662;28;20216;-31
2023/10/27 03:05:08;;;;;;;2.23;1.30;;;10.20;99.90;;;;;;4995788;28;20198;-31
2023/10/27 03:07:34;;;;;;;1.80;0.97;;;10.20;99.90;;;;;;4995828;28;20211;-31
2023/10/27 03:10:00;;;;;;;1.97;1.30;;;10.20;99.90;;;;;;4994990;28;20176;-31
2023/10/27 03:12:27;;;;;;;2.23;1.20;;;10.20;99.90;;;;;;4995866;28;20196;-31
2023/10/27 03:14:53;;;;;;;3.90;0.90;;;10.20;99.90;;;;;;4981062;28;20247;-31
2023/10/27 03:17:19;;;;;;;4.40;1.20;;;10.20;99.90;;;;;;4978691;28;20184;-31
2023/10/27 03:19:46;;;;;;;3.13;1.30;;;10.20;99.90;;;;;;4993554;28;20193;-31
2023/10/27 03:22:12;;;;;;;2.47;1.10;;;10.10;99.90;;;;;;4978744;28;20276;-30
2023/10/27 03:24:38;;;;;;;2.57;1.00;;;10.10;99.90;;;;;;4978420;28;20221;-30
2023/10/27 03:27:04;;;;;;;2.53;1.30;;;10.10;99.90;;;;;;5011245;28;20258;-31
2023/10/27 03:29:30;;;;;;;4.20;1.80;;;10.10;99.90;;;;;;4975784;28;20179;-30
2023/10/27 03:31:55;;;;;;;2.53;1.10;;;10.10;99.90;;;;;;4980739;28;20208;-29
2023/10/27 03:34:21;;;;;;;4.07;1.20;;;10.10;99.90;;;;;;4997085;28;20181;-29
2023/10/27 03:36:47;;;;;;;2.77;1.20;;;10.10;99.90;;;;;;4978045;28;20268;-30
2023/10/27 03:39:13;;;;;;;2.27;1.33;;;10.10;99.90;;;;;;4993708;28;20186;-30
2023/10/27 03:41:38;;;;;;;3.93;1.00;;;10.10;99.90;;;;;;4992913;28;20304;-30
2023/10/27 03:44:05;;;;;;;2.73;1.10;;;10.10;99.90;;;;;;4993848;28;20213;-30
2023/10/27 03:46:30;;;;;;;3.93;1.10;;;10.10;99.90;;;;;;4976075;28;20292;-30
2023/10/27 03:48:58;;;;;;;2.00;1.10;;;10.10;99.90;;;;;;4994333;28;20315;-30
2023/10/27 03:51:25;;;;;;;1.90;1.10;;;10.10;99.90;;;;;;4977507;28;20639;-30
2023/10/27 03:53:53;;;;;;;2.30;1.03;;;10.10;99.90;;;;;;4978467;28;20307;-30
2023/10/27 03:56:19;;;;;;;2.00;1.17;;;10.10;99.90;;;;;;4994324;28;20195;-29
2023/10/27 03:58:44;;;;;;;2.03;1.23;;;10.10;99.90;;;;;;4994177;28;20190;-30
2023/10/27 04:01:10;;;;;;;3.00;1.87;;;10.10;99.90;;;;;;4977927;28;20191;-30
2023/10/27 04:03:36;;;;;;;3.07;1.60;;;10.10;99.90;;;;;;4978145;28;20208;-30
2023/10/27 04:06:02;;;;;;;1.90;1.20;;;10.10;99.90;;;;;;5010015;28;20191;-30
2023/10/27 04:08:28;;;;;;;4.77;1.53;;;10.00;99.90;;;;;;5009080;28;20231;-31
2023/10/27 04:10:53;;;;;;;4.10;1.90;;;10.00;99.90;;;;;;4973630;28;20186;-30
2023/10/27 04:13:19;;;;;;;6.93;1.60;;;10.00;99.90;;;;;;4958470;28;20206;-30
2023/10/27 04:15:45;;;;;;;3.33;1.70;;;10.00;99.90;;;;;;4969716;28;20177;-31
2023/10/27 04:18:11;;;;;;;1.90;1.63;;;10.00;99.90;;;;;;4978120;28;20202;-30
2023/10/27 04:20:38;;;;;;;3.73;2.30;;;10.00;99.90;;;;;;4993218;28;20288;-30
2023/10/27 04:23:04;;;;;;;1.63;1.30;;;9.90;99.90;;;;;;4994027;28;20235;-30
2023/10/27 04:25:30;;;;;;;1.33;1.20;;;9.90;99.90;;;;;;4985727;28;20193;-30
2023/10/27 04:27:56;;;;;;;2.50;1.60;;;9.90;99.90;;;;;;4961736;28;20236;-29
2023/10/27 04:30:22;;;;;;;2.50;1.60;;;9.90;99.90;;;;;;4969084;28;20183;-30
2023/10/27 04:32:48;;;;;;;4.37;1.60;;;10.00;99.90;;;;;;5025288;28;20196;-30
2023/10/27 04:35:17;;;;;;;2.73;1.83;;;10.00;99.90;;;;;;4996198;28;20181;-30
2023/10/27 04:37:43;;;;;;;3.40;1.80;;;10.00;99.90;;;;;;4988277;28;20189;-30
2023/10/27 04:40:10;;;;;;;1.53;1.30;;;10.00;99.90;;;;;;4993728;28;20186;-31
2023/10/27 04:42:36;;;;;;;4.00;1.40;;;10.00;99.90;;;;;;4993823;28;20201;-30
2023/10/27 04:45:02;;;;;;;2.83;1.40;;;10.00;99.90;;;;;;4977240;28;20193;-31
2023/10/27 04:47:28;;;;;;;1.87;1.30;;;10.00;99.90;;;;;;4973317;28;20201;-30
2023/10/27 04:49:54;;;;;;;1.57;1.13;;;10.00;99.90;;;;;;4981641;28;20172;-30
2023/10/27 04:52:19;;;;;;;2.37;1.20;;;10.00;99.90;;;;;;4980285;28;20247;-30
2023/10/27 04:54:45;;;;;;;4.93;1.60;;;10.00;99.90;;;;;;4966640;28;20181;-30
2023/10/27 04:57:11;;;;;;;3.40;1.97;;;10.10;99.90;;;;;;4981689;28;20216;-30
2023/10/27 04:59:37;;;;;;;2.60;1.67;;;10.00;99.90;;;;;;5003026;28;20185;-30
2023/10/27 05:02:03;;;;;;;2.67;1.73;;;10.00;99.90;;;;;;4976746;28;20208;-30
2023/10/27 05:04:28;;;;;;;2.57;1.30;;;10.00;99.90;;;;;;4984246;28;20206;-30
2023/10/27 05:06:54;;;;;;;4.13;1.20;;;10.00;99.90;;;;;;4967357;28;20269;-30
2023/10/27 05:09:20;;;;;;;2.13;1.13;;;10.00;99.90;;;;;;4960785;28;20177;-30
2023/10/27 05:11:46;;;;;;;1.73;1.40;;;10.00;99.90;;;;;;4966508;28;20719;-30
2023/10/27 05:14:13;;;;;;;2.13;1.53;;;10.00;99.90;;;;;;4982990;28;20277;-30
2023/10/27 05:16:40;;;;;;;3.13;1.83;;;10.00;99.90;;;;;;4988333;28;20188;-30
2023/10/27 05:19:06;;;;;;;3.33;1.50;;;10.00;99.90;;;;;;4970078;28;20273;-31
2023/10/27 05:21:32;;;;;;;3.50;1.70;;;10.10;99.90;;;;;;4960325;28;20191;-30
2023/10/27 05:24:01;;;;;;;2.37;1.67;;;10.10;99.90;;;;;;4980743;28;20217;-30
2023/10/27 05:26:27;;;;;;;4.13;2.20;;;10.10;99.90;;;;;;4975288;28;20212;-30
2023/10/27 05:28:53;;;;;;;3.53;1.93;;;10.10;99.90;;;;;;4959801;28;20175;-29
2023/10/27 05:31:19;;;;;;;4.37;2.30;;;10.00;99.90;;;;;;4985685;28;20186;-30
2023/10/27 05:33:45;;;;;;;3.67;1.80;;;10.00;99.90;;;;;;4991956;28;20233;-31
2023/10/27 05:36:11;;;;;;;3.53;1.80;;;10.10;99.90;;;;;;4973217;28;20177;-30
2023/10/27 05:38:36;;;;;;;2.97;1.50;;;10.00;99.90;;;;;;4979745;28;20208;-31
2023/10/27 05:41:03;;;;;;;4.03;1.40;;;10.00;99.90;;;;;;4965877;28;20239;-29
2023/10/27 05:43:29;;;;;;;3.13;1.43;;;10.00;99.90;;;;;;4967895;28;20227;-30
2023/10/27 05:45:55;;;;;;;1.63;1.23;;;10.00;99.90;;;;;;4967760;28;20252;-31
2023/10/27 05:48:21;;;;;;;2.73;1.40;;;10.00;99.90;;;;;;4959913;28;20209;-31
2023/10/27 05:50:47;;;;;;;2.27;1.60;;;10.00;99.90;;;;;;4975164;28;20183;-30
2023/10/27 05:53:15;;;;;;;3.13;1.70;;;10.00;99.90;;;;;;5010898;28;20208;-30
2023/10/27 05:55:42;;;;;;;3.93;1.77;;;10.00;99.90;;;;;;4990980;28;20268;-31
2023/10/27 05:58:07;;;;;;;3.57;1.70;;;10.00;99.90;;;;;;4982633;28;20239;-30
2023/10/27 06:00:33;;;;;;;4.00;1.50;;;10.00;99.90;;;;;;5012383;28;20185;-29
2023/10/27 06:02:59;;;;;;;2.40;1.70;;;10.00;99.90;;;;;;4993716;28;20212;-29
2023/10/27 06:05:25;;;;;;;4.27;1.83;;;10.00;99.90;;;;;;4991631;28;20184;-31
2023/10/27 06:07:51;;;;;;;2.93;1.93;;;10.00;99.90;;;;;;4980250;28;20217;-30
2023/10/27 06:10:18;;;;;;;2.70;2.03;;;10.00;99.90;;;;;;4979779;28;20179;-30
2023/10/27 06:12:44;;;;;;;3.43;2.23;;;10.00;99.90;;;;;;4979617;28;20291;-30
2023/10/27 06:15:10;;;;;;;3.53;1.60;;;10.10;99.90;;;;;;4981272;28;20180;-29
2023/10/27 06:17:36;;;;;;;2.03;1.07;;;10.10;99.90;;;;;;4982419;28;20187;-30
2023/10/27 06:20:05;;;;;;;2.63;1.37;;;10.10;99.90;;;;;;4988776;28;20185;-31
2023/10/27 06:22:31;;;;;;;1.30;1.20;;;10.20;99.90;;;;;;4987496;28;20210;-31
2023/10/27 06:24:57;;;;;;;1.13;1.00;;;10.20;99.90;;;;;;5010733;28;20195;-30
2023/10/27 06:27:24;;;;;;;3.13;1.17;;;10.20;99.90;;;;;;5012812;28;20195;-30
2023/10/27 06:29:50;;;;;;;0.90;0.90;;;10.30;99.90;;;;;;4990642;28;20187;-31
2023/10/27 06:32:16;;;;;;;1.03;0.93;;;10.30;99.90;;;;;;4992289;28;20196;-30
2023/10/27 06:34:42;;;;;;;2.53;1.30;;;10.30;99.90;;;;;;5002910;28;20181;-30
2023/10/27 06:37:08;;;;;;;3.37;1.00;;;10.30;99.90;;;;;;4994936;28;20204;-30
2023/10/27 06:39:34;;;;;;;1.20;1.00;;;10.40;99.90;;;;;;4983496;28;20219;-30
2023/10/27 06:41:59;;;;;;;1.40;0.90;;;10.40;99.90;;;;;;4984249;28;20176;-30
2023/10/27 06:44:26;;;;;;;0.80;0.70;;;10.50;99.90;;;;;;4987669;28;20180;-30
2023/10/27 06:46:53;;;;;;;1.23;0.90;;;10.50;99.90;;;;;;4995074;28;20212;-30
2023/10/27 06:49:20;;;;;;;1.90;0.77;;;10.50;99.90;;;;;;5012453;28;20184;-31
2023/10/27 06:51:49;;;;;;;0.77;0.77;;;10.50;99.90;;;;;;5013912;28;20192;-31
2023/10/27 06:54:15;;;;;;;1.43;0.80;;;10.60;99.90;;;;;;5012750;28;20213;-31
2023/10/27 06:56:41;;;;;;;1.40;0.87;;;10.60;99.90;;;;;;5015121;28;20281;-30
2023/10/27 06:59:07;;;;;;;1.73;1.10;;;10.60;99.90;;;;;;5010657;28;20265;-31
2023/10/27 07:01:33;;;;;;;1.77;0.90;;;10.60;99.90;;;;;;4984279;28;20196;-30
2023/10/27 07:03:59;;;;;;;1.10;0.90;;;10.60;99.90;;;;;;5013417;28;20221;-29
2023/10/27 07:06:25;;;;;;;2.13;1.10;;;10.60;99.90;;;;;;4995560;28;20192;-31
2023/10/27 07:08:51;;;;;;;4.47;1.90;;;10.70;99.90;;;;;;4995542;28;20186;-30
2023/10/27 07:11:17;;;;;;;2.20;1.40;;;10.70;99.90;;;;;;5011808;28;20215;-30
2023/10/27 07:13:43;;;;;;;1.10;0.90;;;10.70;99.90;;;;;;4995390;28;20204;-31
2023/10/27 07:16:09;;;;;;;1.60;1.10;;;10.70;99.90;;;;;;4995782;28;20185;-30
2023/10/27 07:18:35;;;;;;;1.67;1.13;;;10.70;99.90;;;;;;4995652;28;20653;-30
2023/10/27 07:21:00;;;;;;;2.07;1.00;;;10.60;99.90;;;;;;4995228;28;20256;-30
2023/10/27 07:23:28;;;;;;;1.17;1.03;;;10.70;99.90;;;;;;4995270;28;20226;-29
2023/10/27 07:25:54;;;;;;;3.70;1.10;;;10.70;99.90;;;;;;5011141;28;20174;-30
2023/10/27 07:28:20;;;;;;;0.70;0.70;;;10.60;99.90;;;;;;5011609;28;20206;-31
2023/10/27 07:30:46;;;;;;;0.90;0.80;;;10.70;99.90;;;;;;5004590;28;20243;-29
2023/10/27 07:33:13;;;;;;;2.57;0.80;;;10.70;99.90;;;;;;4995170;28;20209;-29
2023/10/27 07:35:39;;;;;;;0.97;0.80;;;10.70;99.90;;;;;;5011251;28;20180;-30
2023/10/27 07:38:05;;;;;;;1.53;0.80;;;10.70;99.90;;;;;;4994954;28;20198;-30
2023/10/27 07:40:34;;;;;;;1.33;0.90;;;10.70;99.90;;;;;;4995059;28;20188;-30
2023/10/27 07:43:00;;;;;;;1.97;0.70;;;10.70;99.90;;;;;;4995241;28;20201;-30
2023/10/27 07:45:26;;;;;;;0.80;0.70;;;10.70;99.90;;;;;;5011534;28;20197;-30
2023/10/27 07:47:52;;;;;;;1.10;0.70;;;10.70;99.90;;;;;;5012443;28;20291;-30
2023/10/27 07:50:18;;;;;;;0.60;0.60;;;10.70;99.90;;;;;;5012091;28;20185;-31
2023/10/27 07:52:45;;;;;;;0.73;0.60;;;10.80;99.90;;;;;;4994767;28;20204;-29
2023/10/27 07:55:10;;;;;;;1.43;0.90;;;10.90;99.90;;;;;;5012583;28;20178;-29
2023/10/27 07:57:36;;;;;;;2.20;0.60;;;10.90;99.90;;;;;;4994464;28;20211;-30
2023/10/27 08:00:04;;;;;;;1.30;0.70;;;10.90;99.90;;;;;;5002494;28;20183;-31
2023/10/27 08:02:33;;;;;;;1.27;0.90;;;11.00;99.90;;;;;;4994520;28;20231;-31
2023/10/27 08:04:59;;;;;;;1.50;0.70;;;11.10;99.90;;;;;;4977708;28;20220;-30
2023/10/27 08:07:24;;;;;;;1.53;0.73;;;11.20;99.90;;;;;;4994331;28;20271;-29
2023/10/27 08:09:51;;;;;;;1.53;0.70;;;11.20;99.90;;;;;;4978324;28;20185;-29
2023/10/27 08:12:17;;;;;;;1.20;0.60;;;11.30;99.90;;;;;;4977989;28;20293;-31
2023/10/27 08:14:44;;;;;;;0.80;0.77;;;11.30;99.90;;;;;;4994775;28;20272;-29
2023/10/27 08:17:10;;;;;;;1.20;0.80;;;11.30;99.90;;;;;;4978335;28;20222;-29
2023/10/27 08:19:36;;;;;;;2.70;0.70;;;11.30;99.90;;;;;;4994219;28;20221;-29
2023/10/27 08:22:01;;;;;;;1.20;1.10;;;11.30;99.90;;;;;;4994383;28;20214;-31
2023/10/27 08:24:28;;;;;;;6.60;0.80;;;11.20;99.90;;;;;;4977807;28;20233;-30
2023/10/27 08:26:54;;;;;;;0.87;0.60;;;11.20;99.90;;;;;;4977725;28;20212;-30
2023/10/27 08:29:20;;;;;;;1.83;0.70;;;11.20;99.90;;;;;;4988441;28;20183;-29
2023/10/27 08:31:46;;;;;;;1.50;0.60;;;11.20;99.90;;;;;;4974556;28;20225;-30
2023/10/27 08:34:12;;;;;;;2.47;0.70;;;11.10;99.90;;;;;;4958631;28;20202;-29
2023/10/27 08:36:38;;;;;;;1.60;0.70;;;11.00;99.90;;;;;;4958757;28;20252;-29
2023/10/27 08:39:05;;;;;;;0.80;0.70;;;11.10;99.90;;;;;;4974861;28;20201;-30
2023/10/27 08:41:33;;;;;;;2.20;1.10;;;11.00;99.90;;;;;;4973489;28;20190;-31
2023/10/27 08:43:59;;;;;;;2.63;1.10;;;11.00;99.90;;;;;;4960011;28;20298;-31
2023/10/27 08:46:27;;;;;;;9.80;7.77;;;11.00;99.90;;;;;;5015172;28;20187;-32
2023/10/27 08:48:55;;;;;;;5.77;3.93;;;11.10;99.90;;;;;;4964264;28;20195;-31
2023/10/27 08:51:21;;;;;;;2.20;1.20;;;11.10;99.90;;;;;;4985915;28;20236;-31
2023/10/27 08:53:47;;;;;;;31.60;22.20;;;11.10;99.90;;;;;;5004436;28;20201;-31
2023/10/27 08:56:15;;;;;;;4.70;3.07;;;11.10;99.90;;;;;;4970014;28;20180;-31
2023/10/27 08:58:52;;;;;;;2.80;1.43;;;11.20;99.90;;;;;;4986993;28;20308;-31
2023/10/27 09:01:20;;;;;;;5.43;3.70;;;11.20;99.90;;;;;;4970028;28;20177;-31
2023/10/27 09:04:09;;;;;;;3.23;1.50;;;11.20;99.90;;;;;;5007924;28;20199;-31
2023/10/27 09:06:36;;;;;;;5.63;3.10;;;11.30;99.90;;;;;;4968838;28;20209;-31
2023/10/27 09:09:05;;;;;;;3.63;1.63;;;11.20;99.90;;;;;;4989795;28;20193;-31
2023/10/27 09:11:47;;;;;;;5.53;1.93;;;11.30;99.90;;;;;;4973960;28;20183;-31
2023/10/27 09:14:26;;;;;;;2.47;0.90;;;11.30;99.90;;;;;;5001475;28;20266;-32
2023/10/27 09:17:05;;;;;;;2.17;1.20;;;11.30;99.90;;;;;;4969871;28;20186;-30
2023/10/27 09:19:32;;;;;;;2.43;1.30;;;11.30;99.90;;;;;;5006710;28;20172;-31
2023/10/27 09:21:58;;;;;;;2.73;1.17;;;11.30;99.90;;;;;;4976463;28;20178;-32
2023/10/27 09:24:26;;;;;;;2.50;1.00;;;11.40;99.90;;;;;;4977095;28;20202;-29
2023/10/27 09:26:53;;;;;;;5.00;1.20;;;11.40;99.90;;;;;;4980873;28;20294;-31
2023/10/27 09:29:19;;;;;;;3.47;1.10;;;11.50;99.90;;;;;;4984753;28;20186;-29
2023/10/27 09:31:46;;;;;;;3.13;1.13;;;11.60;99.90;;;;;;4970276;28;20185;-30
2023/10/27 09:34:23;;;;;;;8.70;6.07;;;11.60;99.90;;;;;;4956317;28;20207;-29
2023/10/27 09:36:55;;;;;;;6.47;2.90;;;11.70;99.90;;;;;;4973214;28;20196;-29
2023/10/27 09:39:24;;;;;;;4.57;3.07;;;11.70;99.90;;;;;;4960571;28;20186;-30
2023/10/27 09:42:01;;;;;;;8.17;6.50;;;11.80;99.90;;;;;;4974506;28;20193;-30
2023/10/27 09:44:51;;;;;;;5.27;4.17;;;12.00;99.90;;;;;;4992246;28;20187;-30
2023/10/27 09:47:50;;;;;;;4.70;3.40;;;12.20;99.90;;;;;;4962162;28;20293;-30
2023/10/27 09:50:24;;;;;;;5.70;1.80;;;12.50;99.90;;;;;;5006323;28;20233;-29
2023/10/27 09:52:51;;;;;;;5.37;1.30;;;12.70;99.90;;;;;;4995788;28;20207;-29
2023/10/27 09:55:20;;;;;;;3.20;1.17;;;12.80;99.90;;;;;;4999332;28;20182;-28
2023/10/27 09:57:47;;;;;;;2.50;1.30;;;12.90;99.90;;;;;;4999211;28;20206;-30
2023/10/27 10:00:18;;;;;;;3.67;1.30;;;13.10;99.90;;;;;;4994397;28;20184;-29
2023/10/27 10:02:45;;;;;;;2.90;1.10;;;13.20;99.90;;;;;;4994815;28;20203;-29
2023/10/27 10:05:12;;;;;;;5.37;1.67;;;13.20;99.90;;;;;;5015165;28;20186;-29
2023/10/27 10:07:52;;;;;;;2.50;1.27;;;13.10;99.90;;;;;;5015274;28;20215;-29
2023/10/27 10:10:35;;;;;;;4.90;1.17;;;13.00;99.90;;;;;;4998438;28;20171;-31
2023/10/27 10:13:17;;;;;;;3.13;1.23;;;13.00;99.90;;;;;;4980286;28;20692;-30
2023/10/27 10:15:47;;;;;;;4.13;1.00;;;13.10;99.90;;;;;;4981699;28;20245;-29
2023/10/27 10:18:28;;;;;;;3.80;1.07;;;13.20;99.90;;;;;;5014943;28;20175;-30
2023/10/27 10:20:58;;;;;;;2.13;1.17;;;13.30;99.90;;;;;;4972850;28;20172;-29
2023/10/27 10:23:51;;;;;;;3.07;1.17;;;13.40;99.90;;;;;;4993035;28;20302;-30
2023/10/27 10:26:18;;;;;;;2.67;1.10;;;13.40;99.90;;;;;;4988821;28;20195;-30
2023/10/27 10:28:49;;;;;;;3.57;1.10;;;13.50;99.90;;;;;;5015345;28;20183;-30
2023/10/27 10:31:18;;;;;;;1.93;0.77;;;13.60;99.90;;;;;;4989831;28;20179;-29
2023/10/27 10:33:48;;;;;;;1.70;0.73;;;13.60;99.90;;;;;;4976058;28;20215;-30
2023/10/27 10:36:14;;;;;;;4.80;1.07;;;13.70;99.90;;;;;;4987712;28;20171;-30
2023/10/27 10:38:49;;;;;;;1.57;0.70;;;13.70;99.90;;;;;;4996944;28;20222;-30
2023/10/27 10:41:19;;;;;;;2.40;0.90;;;13.80;99.90;;;;;;4992037;28;20197;-30
2023/10/27 10:44:13;;;;;;;2.53;0.70;;;14.10;99.90;;;;;;4994610;28;20203;-30
2023/10/27 10:46:40;;;;;;;2.90;0.90;;;14.10;99.90;;;;;;4976921;28;20226;-30
2023/10/27 10:49:10;;;;;;;2.97;1.07;;;14.20;99.90;;;;;;4988262;28;20191;-30
2023/10/27 10:51:38;;;;;;;2.43;1.00;;;14.30;99.90;;;;;;4988843;28;20171;-30
2023/10/27 10:54:14;;;;;;;3.93;1.23;;;14.40;99.90;;;;;;4973383;28;20195;-30
2023/10/27 10:56:43;;;;;;;1.90;0.90;;;14.50;99.90;;;;;;4983814;28;20222;-31
2023/10/27 10:59:19;;;;;;;3.97;0.90;;;14.40;99.90;;;;;;4976407;28;20180;-30
2023/10/27 11:01:55;;;;;;;3.57;1.23;;;14.30;99.90;;;;;;4982317;28;20266;-30
2023/10/27 11:04:28;;;;;;;3.90;1.20;;;14.40;99.90;;;;;;4977880;28;20179;-30
2023/10/27 11:07:00;;;;;;;2.60;0.87;;;14.40;99.90;;;;;;5009762;28;20207;-31
2023/10/27 11:09:27;;;;;;;3.40;1.20;;;14.40;99.90;;;;;;4995994;28;20179;-30
2023/10/27 11:11:54;;;;;;;4.37;1.10;;;14.50;99.90;;;;;;4978705;28;20190;-30
2023/10/27 11:14:20;;;;;;;3.00;1.20;;;14.50;99.90;;;;;;5013130;28;20270;-31
2023/10/27 11:17:03;;;;;;;4.53;1.00;;;14.50;99.90;;;;;;4992102;28;20187;-30
2023/10/27 11:19:29;;;;;;;3.60;1.17;;;14.40;99.90;;;;;;4975541;28;20184;-30
2023/10/27 11:21:54;;;;;;;1.93;1.00;;;14.50;99.90;;;;;;4993516;28;20190;-29
2023/10/27 11:24:22;;;;;;;3.67;0.97;;;14.60;99.90;;;;;;4983282;28;20200;-30
2023/10/27 11:26:51;;;;;;;3.20;0.90;;;14.70;99.90;;;;;;4991594;28;20207;-30
2023/10/27 11:29:18;;;;;;;4.83;0.93;;;14.70;99.90;;;;;;4994564;28;20190;-30
2023/10/27 11:31:45;;;;;;;3.57;1.10;;;14.70;99.90;;;;;;4995244;28;20171;-30
2023/10/27 11:34:13;;;;;;;3.83;1.13;;;14.90;99.90;;;;;;4973808;28;20198;-30
2023/10/27 11:36:43;;;;;;;1.60;0.67;;;14.90;99.90;;;;;;4979099;28;20210;-29
2023/10/27 11:39:17;;;;;;;4.13;0.97;;;14.90;99.90;;;;;;4993608;28;20187;-29
2023/10/27 11:41:48;;;;;;;1.80;0.80;;;14.80;99.90;;;;;;5011907;28;20175;-30
2023/10/27 11:44:15;;;;;;;3.30;0.80;;;14.60;99.90;;;;;;4978092;28;20253;-30
2023/10/27 11:46:47;;;;;;;2.60;0.90;;;14.40;99.90;;;;;;4971222;28;20184;-30
2023/10/27 11:49:14;;;;;;;4.17;1.30;;;14.20;99.90;;;;;;4987047;28;20211;-30
2023/10/27 11:51:44;;;;;;;2.77;1.20;;;14.00;99.90;;;;;;4993635;28;20171;-30
2023/10/27 11:54:10;;;;;;;3.10;0.80;;;13.80;99.90;;;;;;4969838;28;20285;-30
2023/10/27 11:56:37;;;;;;;1.60;0.80;;;13.70;99.90;;;;;;4990513;28;20186;-29
2023/10/27 11:59:04;;;;;;;4.27;1.47;;;13.70;99.90;;;;;;4991960;28;20217;-30
2023/10/27 12:01:30;;;;;;;1.33;0.63;;;13.60;99.90;;;;;;5002848;28;20213;-30
2023/10/27 12:03:56;;;;;;;1.93;0.70;;;13.60;99.90;;;;;;4980537;28;20192;-30
2023/10/27 12:06:22;;;;;;;2.70;0.70;;;13.60;99.90;;;;;;4982130;28;20172;-30
2023/10/27 12:08:48;;;;;;;1.73;0.73;;;13.50;99.90;;;;;;4971590;28;20203;-30
2023/10/27 12:11:17;;;;;;;2.67;0.70;;;13.30;99.90;;;;;;4983894;28;20180;-30
2023/10/27 12:13:47;;;;;;;2.20;0.80;;;13.30;99.90;;;;;;4982999;28;20202;-30
2023/10/27 12:16:13;;;;;;;2.60;0.90;;;13.20;99.90;;;;;;4982627;28;20179;-30
2023/10/27 12:18:39;;;;;;;1.60;0.60;;;13.20;99.90;;;;;;4985568;28;20198;-30
2023/10/27 12:21:05;;;;;;;2.17;0.90;;;13.10;99.90;;;;;;5004478;28;20183;-29
2023/10/27 12:23:32;;;;;;;2.70;0.80;;;12.90;99.90;;;;;;4978421;28;20284;-30
2023/10/27 12:26:00;;;;;;;2.10;0.80;;;12.90;99.90;;;;;;4980360;28;20180;-29
2023/10/27 12:28:29;;;;;;;1.90;0.80;;;12.80;99.90;;;;;;4973029;28;20195;-29
2023/10/27 12:30:56;;;;;;;1.87;0.70;;;12.80;99.90;;;;;;4971705;28;20180;-30
2023/10/27 12:33:22;;;;;;;1.37;0.70;;;12.80;99.90;;;;;;4989404;28;20219;-30
2023/10/27 12:35:49;;;;;;;1.80;0.80;;;12.80;99.90;;;;;;4980991;28;20168;-30
2023/10/27 12:38:18;;;;;;;2.33;0.70;;;12.80;99.90;;;;;;4984652;28;20191;-29
2023/10/27 12:40:47;;;;;;;2.13;0.70;;;12.90;99.90;;;;;;4997541;28;20191;-30
2023/10/27 12:43:16;;;;;;;0.93;0.70;;;12.90;99.90;;;;;;4971388;28;20230;-30
2023/10/27 12:45:42;;;;;;;1.97;1.00;;;13.00;99.90;;;;;;4984803;28;20187;-30
2023/10/27 12:48:09;;;;;;;2.47;0.87;;;13.10;99.90;;;;;;4990014;28;20269;-30
2023/10/27 12:50:36;;;;;;;1.00;0.70;;;13.10;99.90;;;;;;4975706;28;20184;-30